createdAt,value
2023-04-18T00:02:23.135Z,101699.75
2023-04-18T00:04:51.421Z,101686.84
2023-04-18T00:07:19.265Z,101705.41
2023-04-18T00:09:46.966Z,101704.75
2023-04-18T00:12:15.415Z,101704.38
2023-04-18T00:14:43.749Z,101697.63
2023-04-18T00:17:13.487Z,101700.44
2023-04-18T00:19:43.361Z,101689.91
2023-04-18T00:22:11.582Z,101690.00
2023-04-18T00:24:48.143Z,101685.88
2023-04-18T00:27:16.265Z,101691.41
2023-04-18T00:29:43.974Z,101695.09
2023-04-18T00:32:11.731Z,101710.34
2023-04-18T00:34:40.489Z,101699.25
2023-04-18T00:37:09.942Z,101695.16
2023-04-18T00:39:37.690Z,101696.06
2023-04-18T00:42:05.544Z,101681.72
2023-04-18T00:44:33.474Z,101684.59
2023-04-18T00:47:01.392Z,101684.63
2023-04-18T00:49:29.291Z,101681.72
2023-04-18T00:51:57.190Z,101680.53
2023-04-18T00:54:27.394Z,101680.44
2023-04-18T00:56:55.185Z,101685.06
2023-04-18T00:59:23.146Z,101676.84
2023-04-18T01:01:51.209Z,101677.16
2023-04-18T01:04:19.387Z,101678.59
2023-04-18T01:06:47.308Z,101692.22
2023-04-18T01:09:15.994Z,101672.75
2023-04-18T01:11:45.086Z,101679.63
2023-04-18T01:14:12.978Z,101682.13
2023-04-18T01:16:40.876Z,101678.13
2023-04-18T01:19:23.246Z,101678.69
2023-04-18T01:21:53.544Z,101663.72
2023-04-18T01:24:24.795Z,101676.22
2023-04-18T01:26:52.480Z,101686.72
2023-04-18T01:29:20.228Z,101673.06
2023-04-18T01:31:49.455Z,101679.41
2023-04-18T01:34:17.871Z,101671.66
2023-04-18T01:36:46.730Z,101673.03
2023-04-18T01:39:14.723Z,101674.34
2023-04-18T01:41:43.948Z,101671.50
2023-04-18T01:44:11.985Z,101673.91
2023-04-18T01:49:48.152Z,101663.44
2023-04-18T01:52:16.171Z,101671.09
2023-04-18T01:54:44.097Z,101655.59
2023-04-18T01:57:13.309Z,101658.34
2023-04-18T01:59:41.018Z,101656.38
2023-04-18T02:02:09.031Z,101655.34
2023-04-18T02:04:36.971Z,101654.91
2023-04-18T02:07:04.742Z,101665.94
2023-04-18T02:09:32.410Z,101657.06
2023-04-18T02:12:02.685Z,101652.22
2023-04-18T02:14:34.173Z,101652.09
2023-04-18T02:17:01.942Z,101658.44
2023-04-18T02:19:30.967Z,101652.84
2023-04-18T02:21:58.737Z,101655.38
2023-04-18T02:24:26.624Z,101661.56
2023-04-18T02:26:54.346Z,101654.09
2023-04-18T02:29:22.039Z,101656.38
2023-04-18T02:31:51.207Z,101639.09
2023-04-18T02:34:28.029Z,101645.81
2023-04-18T02:36:55.767Z,101644.31
2023-04-18T02:39:23.495Z,101650.47
2023-04-18T02:41:51.350Z,101641.75
2023-04-18T02:44:19.092Z,101643.75
2023-04-18T02:46:46.808Z,101659.75
2023-04-18T02:49:16.146Z,101658.13
2023-04-18T02:51:43.849Z,101654.91
2023-04-18T02:54:11.838Z,101658.91
2023-04-18T02:56:40.289Z,101650.06
2023-04-18T02:59:08.340Z,101658.03
2023-04-18T03:01:36.075Z,101651.25
2023-04-18T03:04:03.891Z,101656.06
2023-04-18T03:06:33.088Z,101655.75
2023-04-18T03:09:00.963Z,101664.47
2023-04-18T03:11:28.680Z,101650.41
2023-04-18T03:13:56.684Z,101653.69
2023-04-18T03:16:24.550Z,101643.00
2023-04-18T03:18:52.274Z,101653.28
2023-04-18T03:21:19.981Z,101650.16
2023-04-18T03:23:49.439Z,101656.59
2023-04-18T03:26:17.272Z,101662.97
2023-04-18T03:28:44.962Z,101647.13
2023-04-18T03:31:12.684Z,101644.34
2023-04-18T03:33:42.316Z,101645.59
2023-04-18T03:36:10.240Z,101650.97
2023-04-18T03:38:40.688Z,101658.84
2023-04-18T03:41:09.823Z,101659.50
2023-04-18T03:43:37.539Z,101669.47
2023-04-18T03:46:05.595Z,101668.56
2023-04-18T03:48:35.883Z,101665.88
2023-04-18T03:51:03.812Z,101659.25
2023-04-18T03:54:12.019Z,101675.19
2023-04-18T03:56:41.525Z,101668.13
2023-04-18T03:59:09.261Z,101672.16
2023-04-18T04:01:37.322Z,101680.56
2023-04-18T04:04:05.564Z,101666.09
2023-04-18T04:06:33.468Z,101674.09
2023-04-18T04:09:01.282Z,101680.09
2023-04-18T04:11:29.289Z,101690.50
2023-04-18T04:13:58.431Z,101666.16
2023-04-18T04:16:26.220Z,101668.44
2023-04-18T04:18:54.181Z,101680.84
2023-04-18T04:21:24.632Z,101674.88
2023-04-18T04:23:52.455Z,101692.56
2023-04-18T04:26:23.170Z,101684.44
2023-04-18T04:28:51.666Z,101678.59
2023-04-18T04:31:22.237Z,101689.75
2023-04-18T04:33:50.266Z,101684.16
2023-04-18T04:36:19.554Z,101701.81
2023-04-18T04:38:47.388Z,101693.63
2023-04-18T04:41:15.294Z,101690.19
2023-04-18T04:43:42.980Z,101690.50
2023-04-18T04:46:13.667Z,101697.63
2023-04-18T04:48:43.284Z,101693.13
2023-04-18T04:51:11.079Z,101699.75
2023-04-18T04:53:39.018Z,101700.47
2023-04-18T04:56:07.194Z,101704.97
2023-04-18T04:58:35.012Z,101700.97
2023-04-18T05:01:02.958Z,101698.84
2023-04-18T05:03:31.276Z,101712.00
2023-04-18T05:06:00.964Z,101707.81
2023-04-18T05:08:28.897Z,101707.31
2023-04-18T05:10:56.801Z,101714.91
2023-04-18T05:13:24.528Z,101722.03
2023-04-18T05:15:53.072Z,101713.75
2023-04-18T05:18:21.310Z,101717.72
2023-04-18T05:20:49.353Z,101708.50
2023-04-18T05:23:18.517Z,101715.50
2023-04-18T05:25:46.557Z,101715.56
2023-04-18T05:28:14.256Z,101713.38
2023-04-18T05:30:42.187Z,101706.16
2023-04-18T05:33:25.250Z,101707.47
2023-04-18T05:35:53.252Z,101719.88
2023-04-18T05:38:22.438Z,101696.91
2023-04-18T05:40:51.214Z,101716.38
2023-04-18T05:43:20.329Z,101722.19
2023-04-18T05:45:48.274Z,101719.75
2023-04-18T05:48:16.114Z,101720.75
2023-04-18T05:51:02.330Z,101726.66
2023-04-18T05:53:31.450Z,101728.16
2023-04-18T05:55:59.897Z,101737.72
2023-04-18T05:58:31.008Z,101733.84
2023-04-18T06:00:58.964Z,101736.34
2023-04-18T06:03:26.883Z,101747.06
2023-04-18T06:05:55.123Z,101745.47
2023-04-18T06:08:22.948Z,101754.56
2023-04-18T06:10:52.120Z,101753.06
2023-04-18T06:13:26.238Z,101753.34
2023-04-18T06:15:54.034Z,101751.28
2023-04-18T06:18:21.785Z,101767.75
2023-04-18T06:20:49.569Z,101759.28
2023-04-18T06:23:17.298Z,101759.06
2023-04-18T06:25:45.317Z,101753.09
2023-04-18T06:28:14.446Z,101750.63
2023-04-18T06:30:42.150Z,101759.91
2023-04-18T06:33:11.136Z,101757.06
2023-04-18T06:35:38.978Z,101771.16
2023-04-18T06:38:06.793Z,101771.91
2023-04-18T06:40:34.546Z,101773.28
2023-04-18T06:43:02.710Z,101771.16
2023-04-18T06:45:32.686Z,101775.00
2023-04-18T06:48:00.733Z,101772.09
2023-04-18T06:50:28.468Z,101779.75
2023-04-18T06:52:56.307Z,101781.50
2023-04-18T06:55:24.112Z,101782.03
2023-04-18T06:57:51.855Z,101787.03
2023-04-18T07:00:20.039Z,101797.47
2023-04-18T07:02:49.796Z,101791.56
2023-04-18T07:05:17.727Z,101787.88
2023-04-18T07:07:45.460Z,101788.53
2023-04-18T07:10:13.677Z,101789.63
2023-04-18T07:12:41.391Z,101783.19
2023-04-18T07:15:10.929Z,101787.13
2023-04-18T07:17:38.763Z,101797.28
2023-04-18T07:20:09.593Z,101785.06
2023-04-18T07:22:37.309Z,101799.72
2023-04-18T07:25:05.764Z,101796.88
2023-04-18T07:27:35.490Z,101805.56
2023-04-18T07:30:03.384Z,101790.66
2023-04-18T07:32:31.653Z,101792.53
2023-04-18T07:34:59.500Z,101793.09
2023-04-18T07:37:28.769Z,101796.03
2023-04-18T07:39:56.531Z,101795.63
2023-04-18T07:42:24.356Z,101801.03
2023-04-18T07:44:52.736Z,101805.81
2023-04-18T07:47:22.296Z,101802.06
2023-04-18T07:49:50.293Z,101796.66
2023-04-18T07:52:18.079Z,101806.22
2023-04-18T07:55:02.669Z,101825.94
2023-04-18T07:57:30.397Z,101812.63
2023-04-18T07:59:58.124Z,101818.81
2023-04-18T08:02:26.012Z,101832.53
2023-04-18T08:04:56.459Z,101828.75
2023-04-18T08:07:24.659Z,101810.00
2023-04-18T08:09:52.777Z,101820.50
2023-04-18T08:12:22.031Z,101821.34
2023-04-18T08:14:49.869Z,101831.69
2023-04-18T08:17:18.173Z,101827.56
2023-04-18T08:19:46.250Z,101820.44
2023-04-18T08:22:14.082Z,101814.50
2023-04-18T08:25:05.518Z,101830.47
2023-04-18T08:27:34.986Z,101828.63
2023-04-18T08:30:04.209Z,101829.25
2023-04-18T08:32:32.392Z,101820.44
2023-04-18T08:35:00.914Z,101838.38
2023-04-18T08:37:29.146Z,101823.34
2023-04-18T08:39:56.964Z,101840.44
2023-04-18T08:42:24.826Z,101822.81
2023-04-18T08:44:54.211Z,101823.53
2023-04-18T08:47:21.933Z,101811.84
2023-04-18T08:49:49.716Z,101823.66
2023-04-18T08:52:18.257Z,101827.06
2023-04-18T08:54:55.069Z,101832.31
2023-04-18T08:57:26.987Z,101830.00
2023-04-18T08:59:56.661Z,101822.31
2023-04-18T09:02:38.999Z,101816.31
2023-04-18T09:05:12.657Z,101826.47
2023-04-18T09:07:40.663Z,101826.38
2023-04-18T09:10:09.923Z,101832.75
2023-04-18T09:12:50.336Z,101822.16
2023-04-18T09:15:24.404Z,101823.94
2023-04-18T09:17:55.025Z,101828.78
2023-04-18T09:20:30.416Z,101826.44
2023-04-18T09:23:00.735Z,101835.34
2023-04-18T09:25:30.270Z,101831.81
2023-04-18T09:28:01.040Z,101823.09
2023-04-18T09:30:36.944Z,101814.44
2023-04-18T09:33:07.600Z,101800.19
2023-04-18T09:35:35.923Z,101819.41
2023-04-18T09:38:04.055Z,101818.19
2023-04-18T09:40:32.213Z,101819.66
2023-04-18T09:43:00.122Z,101821.31
2023-04-18T09:45:28.166Z,101820.19
2023-04-18T09:47:57.369Z,101824.34
2023-04-18T09:50:25.098Z,101820.00
2023-04-18T09:52:53.278Z,101814.75
2023-04-18T09:55:21.093Z,101803.56
2023-04-18T09:57:49.628Z,101817.03
2023-04-18T10:00:23.519Z,101822.72
2023-04-18T10:02:53.692Z,101811.97
2023-04-18T10:05:26.167Z,101824.97
2023-04-18T10:07:55.316Z,101828.03
2023-04-18T10:10:23.346Z,101811.44
2023-04-18T10:12:52.676Z,101821.53
2023-04-18T10:15:22.363Z,101807.56
2023-04-18T10:18:03.485Z,101797.56
2023-04-18T10:20:36.068Z,101807.06
2023-04-18T10:23:37.846Z,101800.78
2023-04-18T10:26:06.381Z,101821.06
2023-04-18T10:28:54.676Z,101824.78
2023-04-18T10:31:23.988Z,101809.31
2023-04-18T10:34:03.950Z,101814.88
2023-04-18T10:36:34.509Z,101816.44
2023-04-18T10:39:23.957Z,101815.09
2023-04-18T10:41:52.530Z,101815.22
2023-04-18T10:44:22.661Z,101826.31
2023-04-18T10:47:19.915Z,101809.13
2023-04-18T10:49:58.990Z,101799.28
2023-04-18T10:52:28.574Z,101799.97
2023-04-18T10:55:03.091Z,101814.75
2023-04-18T10:57:39.531Z,101810.13
2023-04-18T11:00:11.763Z,101817.31
2023-04-18T11:02:40.256Z,101818.16
2023-04-18T11:11:23.718Z,101796.91
2023-04-18T11:13:56.896Z,101788.06
2023-04-18T11:16:28.847Z,101792.13
2023-04-18T11:18:56.957Z,101788.56
2023-04-18T11:21:29.135Z,101803.44
2023-04-18T11:23:58.571Z,101797.50
2023-04-18T11:26:28.987Z,101796.75
2023-04-18T11:28:58.420Z,101786.44
2023-04-18T11:31:26.416Z,101795.63
2023-04-18T11:33:57.351Z,101780.81
2023-04-18T11:36:25.166Z,101779.38
2023-04-18T11:38:52.997Z,101787.56
2023-04-18T11:41:21.339Z,101781.03
2023-04-18T11:43:50.432Z,101780.13
2023-04-18T11:46:18.183Z,101788.50
2023-04-18T11:48:46.692Z,101799.13
2023-04-18T11:51:34.220Z,101806.66
2023-04-18T11:54:02.088Z,101796.66
2023-04-18T11:56:30.050Z,101791.75
2023-04-18T11:58:59.510Z,101784.66
2023-04-18T12:04:52.109Z,101778.78
2023-04-18T12:07:34.335Z,101775.78
2023-04-18T12:10:02.421Z,101778.59
2023-04-18T12:12:30.228Z,101791.66
2023-04-18T12:15:04.638Z,101773.66
2023-04-18T12:17:32.499Z,101769.50
2023-04-18T12:20:04.822Z,101779.50
2023-04-18T12:22:40.377Z,101771.28
2023-04-18T12:25:20.127Z,101775.22
2023-04-18T12:27:50.437Z,101784.75
2023-04-18T12:30:22.095Z,101771.88
2023-04-18T12:35:54.066Z,101779.16
2023-04-18T12:38:23.367Z,101776.41
2023-04-18T12:40:51.788Z,101764.88
2023-04-18T12:43:19.610Z,101773.88
2023-04-18T12:45:48.746Z,101781.03
2023-04-18T12:48:16.424Z,101790.25
2023-04-18T12:50:44.122Z,101783.47
2023-04-18T12:53:27.086Z,101775.56
2023-04-18T12:55:54.747Z,101784.22
2023-04-18T12:58:22.517Z,101769.91
2023-04-18T13:00:51.692Z,101776.50
2023-04-18T13:03:19.671Z,101762.47
2023-04-18T13:05:47.474Z,101752.13
2023-04-18T13:08:17.547Z,101770.41
2023-04-18T13:10:46.172Z,101770.44
2023-04-18T13:13:14.007Z,101758.63
2023-04-18T13:15:41.679Z,101762.53
2023-04-18T13:18:11.093Z,101753.84
2023-04-18T13:20:38.826Z,101752.69
2023-04-18T13:23:06.486Z,101775.50
2023-04-18T13:25:34.161Z,101775.19
2023-04-18T13:28:01.948Z,101762.72
2023-04-18T13:30:29.858Z,101773.13
2023-04-18T13:32:58.099Z,101766.56
2023-04-18T13:35:27.236Z,101758.19
2023-04-18T13:37:54.972Z,101752.31
2023-04-18T13:40:22.701Z,101752.41
2023-04-18T13:42:50.425Z,101756.88
2023-04-18T13:45:18.233Z,101769.41
2023-04-18T13:47:45.928Z,101754.81
2023-04-18T13:50:13.630Z,101752.31
2023-04-18T13:52:42.693Z,101766.25
2023-04-18T13:55:12.487Z,101772.28
2023-04-18T13:57:41.276Z,101758.13
2023-04-18T14:00:12.794Z,101755.00
2023-04-18T14:02:40.638Z,101743.06
2023-04-18T14:05:09.445Z,101746.59
2023-04-18T14:08:04.160Z,101754.75
2023-04-18T14:10:32.953Z,101751.53
2023-04-18T14:13:00.729Z,101754.81
2023-04-18T14:15:28.549Z,101762.25
2023-04-18T14:17:56.423Z,101751.25
2023-04-18T14:20:25.780Z,101757.91
2023-04-18T14:22:53.756Z,101760.34
2023-04-18T14:25:23.543Z,101741.41
2023-04-18T14:28:05.363Z,101760.59
2023-04-18T14:30:33.461Z,101747.38
2023-04-18T14:33:01.213Z,101746.28
2023-04-18T14:35:28.959Z,101758.31
2023-04-18T14:37:56.688Z,101733.28
2023-04-18T14:40:25.977Z,101740.44
2023-04-18T14:42:54.253Z,101753.00
2023-04-18T14:45:28.084Z,101748.88
2023-04-18T14:47:56.015Z,101756.66
2023-04-18T14:50:23.969Z,101730.72
2023-04-18T14:52:52.221Z,101745.66
2023-04-18T14:55:20.457Z,101738.06
2023-04-18T14:57:49.648Z,101749.69
2023-04-18T15:00:17.895Z,101744.88
2023-04-18T15:02:45.853Z,101744.66
2023-04-18T15:05:14.206Z,101732.94
2023-04-18T15:07:43.519Z,101740.25
2023-04-18T15:10:13.235Z,101742.41
2023-04-18T15:12:43.475Z,101751.56
2023-04-18T15:15:12.823Z,101729.91
2023-04-18T15:17:40.563Z,101714.34
2023-04-18T15:20:09.465Z,101723.88
2023-04-18T15:22:37.268Z,101704.84
2023-04-18T15:25:06.484Z,101733.88
2023-04-18T15:27:34.431Z,101747.59
2023-04-18T15:30:02.383Z,101727.84
2023-04-18T15:32:31.487Z,101743.91
2023-04-18T15:34:59.204Z,101730.91
2023-04-18T15:37:27.332Z,101726.00
2023-04-18T15:39:55.013Z,101711.78
2023-04-18T15:42:23.334Z,101706.50
2023-04-18T15:44:51.031Z,101738.56
2023-04-18T15:47:18.911Z,101719.56
2023-04-18T15:49:51.009Z,101721.66
2023-04-18T15:52:18.791Z,101712.97
2023-04-18T15:54:46.561Z,101718.31
2023-04-18T15:57:14.880Z,101709.91
2023-04-18T15:59:42.548Z,101711.47
2023-04-18T16:02:11.087Z,101734.16
2023-04-18T16:04:39.180Z,101736.31
2023-04-18T16:07:08.991Z,101739.84
2023-04-18T16:09:36.920Z,101721.19
2023-04-18T16:12:07.166Z,101731.25
2023-04-18T16:14:34.940Z,101739.38
2023-04-18T16:17:03.095Z,101727.59
2023-04-18T16:19:30.856Z,101739.28
2023-04-18T16:21:58.805Z,101714.97
2023-04-18T16:24:30.199Z,101725.91
2023-04-18T16:26:58.825Z,101732.59
2023-04-18T16:29:26.848Z,101735.75
2023-04-18T16:31:54.621Z,101722.44
2023-04-18T16:34:22.355Z,101715.00
2023-04-18T16:36:51.142Z,101710.44
2023-04-18T16:39:19.280Z,101727.19
2023-04-18T16:41:48.485Z,101727.88
2023-04-18T16:44:16.367Z,101727.16
2023-04-18T16:46:44.411Z,101729.28
2023-04-18T16:49:19.124Z,101728.75
2023-04-18T16:51:46.813Z,101731.69
2023-04-18T16:54:14.875Z,101730.97
2023-04-18T16:56:44.612Z,101735.31
2023-04-18T16:59:13.847Z,101740.25
2023-04-18T17:01:41.731Z,101712.69
2023-04-18T17:04:09.606Z,101717.63
2023-04-18T17:06:37.310Z,101727.16
2023-04-18T17:09:06.482Z,101711.84
2023-04-18T17:11:39.624Z,101719.59
2023-04-18T17:14:20.317Z,101729.34
2023-04-18T17:16:49.596Z,101727.03
2023-04-18T17:19:19.072Z,101731.53
2023-04-18T17:21:47.106Z,101729.09
2023-04-18T17:24:14.860Z,101725.88
2023-04-18T17:26:42.898Z,101720.59
2023-04-18T17:29:10.598Z,101720.22
2023-04-18T17:31:39.892Z,101730.75
2023-04-18T17:34:07.757Z,101724.09
2023-04-18T17:36:35.435Z,101746.31
2023-04-18T17:39:06.288Z,101736.84
2023-04-18T17:41:37.411Z,101733.78
2023-04-18T17:44:05.629Z,101736.59
2023-04-18T17:46:33.764Z,101752.78
2023-04-18T17:49:02.978Z,101747.47
2023-04-18T17:51:31.010Z,101748.94
2023-04-18T17:53:58.856Z,101763.19
2023-04-18T17:56:26.925Z,101750.22
2023-04-18T17:58:56.589Z,101760.78
2023-04-18T18:01:24.921Z,101762.06
2023-04-18T18:03:54.235Z,101763.25
2023-04-18T18:06:23.874Z,101764.06
2023-04-18T18:08:51.570Z,101755.56
2023-04-18T18:11:19.333Z,101747.72
2023-04-18T18:13:47.217Z,101761.88
2023-04-18T18:16:14.954Z,101752.44
2023-04-18T18:18:43.196Z,101772.47
2023-04-18T18:21:11.543Z,101774.66
2023-04-18T18:23:40.779Z,101777.81
2023-04-18T18:26:09.958Z,101775.19
2023-04-18T18:28:37.986Z,101776.88
2023-04-18T18:31:05.969Z,101764.13
2023-04-18T18:33:33.772Z,101772.22
2023-04-18T18:36:01.852Z,101774.63
2023-04-18T18:38:29.628Z,101768.72
2023-04-18T18:40:59.102Z,101779.34
2023-04-18T18:43:27.909Z,101780.09
2023-04-18T18:45:55.753Z,101785.59
2023-04-18T18:48:24.603Z,101784.00
2023-04-18T18:50:52.501Z,101784.00
2023-04-18T18:53:20.254Z,101790.06
2023-04-18T18:55:47.942Z,101781.59
2023-04-18T18:58:17.019Z,101802.66
2023-04-18T19:00:44.717Z,101798.09
2023-04-18T19:03:12.769Z,101796.69
2023-04-18T19:05:42.135Z,101803.00
2023-04-18T19:08:09.811Z,101797.84
2023-04-18T19:10:37.854Z,101805.97
2023-04-18T19:13:05.718Z,101792.78
2023-04-18T19:15:34.859Z,101804.78
2023-04-18T19:18:02.586Z,101805.41
2023-04-18T19:20:30.603Z,101805.47
2023-04-18T19:22:58.314Z,101805.97
2023-04-18T19:25:26.274Z,101794.19
2023-04-18T19:27:54.248Z,101809.16
2023-04-18T19:30:22.158Z,101806.28
2023-04-18T19:32:51.295Z,101809.50
2023-04-18T19:35:19.015Z,101805.34
2023-04-18T19:37:46.803Z,101812.22
2023-04-18T19:40:15.203Z,101821.47
2023-04-18T19:42:42.881Z,101816.50
2023-04-18T19:45:13.710Z,101820.06
2023-04-18T19:47:44.032Z,101816.44
2023-04-18T19:50:35.962Z,101822.97
2023-04-18T19:53:03.662Z,101806.81
2023-04-18T19:55:31.599Z,101813.06
2023-04-18T19:58:00.417Z,101811.47
2023-04-18T20:00:29.385Z,101810.31
2023-04-18T20:02:58.702Z,101821.31
2023-04-18T20:05:28.364Z,101831.72
2023-04-18T20:07:56.667Z,101811.59
2023-04-18T20:10:24.602Z,101814.28
2023-04-18T20:12:52.275Z,101812.03
2023-04-18T20:15:20.191Z,101813.84
2023-04-18T20:17:47.870Z,101816.44
2023-04-18T20:20:15.794Z,101817.53
2023-04-18T20:22:46.942Z,101811.47
2023-04-18T20:25:14.627Z,101803.75
2023-04-18T20:27:42.306Z,101807.75
2023-04-18T20:30:10.725Z,101800.66
2023-04-18T20:32:38.421Z,101813.88
2023-04-18T20:35:07.374Z,101802.75
2023-04-18T20:37:36.764Z,101816.38
2023-04-18T20:40:11.088Z,101830.69
2023-04-18T20:42:39.001Z,101830.34
2023-04-18T20:45:10.859Z,101823.41
2023-04-18T20:47:38.764Z,101823.81
2023-04-18T20:50:07.748Z,101813.06
2023-04-18T20:52:35.425Z,101811.19
2023-04-18T20:55:03.163Z,101815.16
2023-04-18T20:57:32.238Z,101808.06
2023-04-18T20:59:59.955Z,101808.59
2023-04-18T21:02:28.036Z,101816.75
2023-04-18T21:04:55.811Z,101805.28
2023-04-18T21:07:23.484Z,101809.78
2023-04-18T21:09:51.174Z,101813.94
2023-04-18T21:12:18.909Z,101827.75
2023-04-18T21:14:48.432Z,101820.16
2023-04-18T21:17:17.453Z,101826.25
2023-04-18T21:19:46.147Z,101827.88
2023-04-18T21:22:14.830Z,101817.53
2023-04-18T21:24:42.608Z,101829.44
2023-04-18T21:27:10.680Z,101825.22
2023-04-18T21:29:38.387Z,101838.31
2023-04-18T21:32:07.616Z,101832.91
2023-04-18T21:34:35.349Z,101836.28
2023-04-18T21:37:03.093Z,101825.88
2023-04-18T21:39:30.912Z,101823.53
2023-04-18T21:41:58.603Z,101818.84
2023-04-18T21:44:26.526Z,101826.91
2023-04-18T21:46:54.187Z,101833.19
2023-04-18T21:49:23.259Z,101827.94
2023-04-18T21:51:51.010Z,101828.22
2023-04-18T21:54:18.768Z,101828.25
2023-04-18T21:56:46.448Z,101824.66
2023-04-18T21:59:14.099Z,101825.69
2023-04-18T22:01:41.819Z,101826.69
2023-04-18T22:04:09.710Z,101821.66
2023-04-18T22:06:38.953Z,101816.75
2023-04-18T22:09:07.335Z,101825.72
2023-04-18T22:11:35.055Z,101834.88
2023-04-18T22:14:02.728Z,101820.50
2023-04-18T22:16:30.732Z,101819.56
2023-04-18T22:18:58.403Z,101820.38
2023-04-18T22:21:26.515Z,101814.91
2023-04-18T22:23:55.593Z,101827.78
2023-04-18T22:26:23.546Z,101821.06
2023-04-18T22:28:51.226Z,101835.53
2023-04-18T22:31:19.006Z,101829.88
2023-04-18T22:33:47.673Z,101821.66
2023-04-18T22:36:15.519Z,101818.28
2023-04-18T22:38:43.189Z,101816.03
2023-04-18T22:41:13.044Z,101832.97
2023-04-18T22:43:40.737Z,101825.13
2023-04-18T22:46:08.410Z,101821.97
2023-04-18T22:48:36.245Z,101831.38
2023-04-18T22:51:03.993Z,101824.72
2023-04-18T22:53:31.716Z,101837.41
2023-04-18T22:55:59.382Z,101830.66
2023-04-18T22:58:28.610Z,101831.72
2023-04-18T23:00:56.379Z,101831.66
2023-04-18T23:03:24.204Z,101822.16
2023-04-18T23:05:52.773Z,101834.53
2023-04-18T23:08:22.607Z,101834.09
2023-04-18T23:10:50.438Z,101826.88
2023-04-18T23:13:18.159Z,101825.81
2023-04-18T23:15:47.273Z,101813.09
2023-04-18T23:18:15.291Z,101814.25
2023-04-18T23:20:42.998Z,101817.53
2023-04-18T23:23:10.812Z,101823.63
2023-04-18T23:25:38.543Z,101816.78
2023-04-18T23:28:06.391Z,101810.41
2023-04-18T23:30:36.237Z,101812.66
2023-04-18T23:33:05.927Z,101814.72
2023-04-18T23:35:33.672Z,101825.00
2023-04-18T23:38:01.472Z,101823.84
2023-04-18T23:40:29.328Z,101817.53
2023-04-18T23:42:57.135Z,101809.19
2023-04-18T23:45:25.467Z,101828.19
2023-04-18T23:47:53.171Z,101819.66
2023-04-18T23:50:22.715Z,101815.78
2023-04-18T23:52:50.369Z,101819.97
2023-04-18T23:55:18.167Z,101815.91
2023-04-18T23:57:45.837Z,101815.63
